sensor_id;sensor_type;location;lat;lon;timestamp;P1;durP1;ratioP1;P2;durP2;ratioP2
29954;SDS011;68448;51.188;6.868;2023-05-10T00:01:41;32.70;;;15.40;;
29954;SDS011;68448;51.188;6.868;2023-05-10T00:04:08;36.33;;;16.23;;
29954;SDS011;68448;51.188;6.868;2023-05-10T00:06:35;31.97;;;13.80;;
29954;SDS011;68448;51.188;6.868;2023-05-10T00:09:02;35.07;;;14.97;;
29954;SDS011;68448;51.188;6.868;2023-05-10T00:11:29;35.37;;;15.97;;
29954;SDS011;68448;51.188;6.868;2023-05-10T00:13:57;34.10;;;16.20;;
29954;SDS011;68448;51.188;6.868;2023-05-10T00:16:24;36.10;;;16.77;;
29954;SDS011;68448;51.188;6.868;2023-05-10T00:18:52;35.00;;;15.27;;
29954;SDS011;68448;51.188;6.868;2023-05-10T00:21:19;38.73;;;17.37;;
29954;SDS011;68448;51.188;6.868;2023-05-10T00:23:46;42.00;;;18.07;;
29954;SDS011;68448;51.188;6.868;2023-05-10T00:26:13;33.00;;;16.27;;
29954;SDS011;68448;51.188;6.868;2023-05-10T00:28:43;37.77;;;16.57;;
29954;SDS011;68448;51.188;6.868;2023-05-10T00:31:12;38.60;;;17.17;;
29954;SDS011;68448;51.188;6.868;2023-05-10T00:33:39;40.90;;;17.63;;
29954;SDS011;68448;51.188;6.868;2023-05-10T00:36:06;42.33;;;17.60;;
29954;SDS011;68448;51.188;6.868;2023-05-10T00:38:33;37.53;;;17.50;;
29954;SDS011;68448;51.188;6.868;2023-05-10T00:41:01;37.37;;;17.20;;
29954;SDS011;68448;51.188;6.868;2023-05-10T00:43:31;31.63;;;14.53;;
29954;SDS011;68448;51.188;6.868;2023-05-10T00:45:58;36.93;;;15.93;;
29954;SDS011;68448;51.188;6.868;2023-05-10T00:48:26;34.23;;;16.33;;
29954;SDS011;68448;51.188;6.868;2023-05-10T00:50:55;36.97;;;18.80;;
29954;SDS011;68448;51.188;6.868;2023-05-10T00:53:22;42.57;;;17.57;;
29954;SDS011;68448;51.188;6.868;2023-05-10T00:55:50;45.63;;;20.40;;
29954;SDS011;68448;51.188;6.868;2023-05-10T00:58:17;46.20;;;18.60;;
29954;SDS011;68448;51.188;6.868;2023-05-10T01:00:45;44.53;;;17.90;;
29954;SDS011;68448;51.188;6.868;2023-05-10T01:03:13;39.10;;;18.80;;
29954;SDS011;68448;51.188;6.868;2023-05-10T01:05:41;48.17;;;21.50;;
29954;SDS011;68448;51.188;6.868;2023-05-10T01:08:08;42.17;;;19.50;;
29954;SDS011;68448;51.188;6.868;2023-05-10T01:10:35;43.33;;;20.27;;
29954;SDS011;68448;51.188;6.868;2023-05-10T01:13:03;45.23;;;18.63;;
29954;SDS011;68448;51.188;6.868;2023-05-10T01:15:30;36.87;;;16.33;;
29954;SDS011;68448;51.188;6.868;2023-05-10T01:17:57;30.03;;;13.37;;
29954;SDS011;68448;51.188;6.868;2023-05-10T01:20:25;21.20;;;9.40;;
29954;SDS011;68448;51.188;6.868;2023-05-10T01:31:20;20.60;;;11.87;;
29954;SDS011;68448;51.188;6.868;2023-05-10T01:33:52;23.23;;;11.93;;
29954;SDS011;68448;51.188;6.868;2023-05-10T01:36:23;26.70;;;12.53;;
29954;SDS011;68448;51.188;6.868;2023-05-10T01:38:56;29.60;;;13.63;;
29954;SDS011;68448;51.188;6.868;2023-05-10T01:41:24;22.90;;;11.63;;
29954;SDS011;68448;51.188;6.868;2023-05-10T01:43:56;23.13;;;11.50;;
29954;SDS011;68448;51.188;6.868;2023-05-10T01:46:26;23.60;;;13.20;;
29954;SDS011;68448;51.188;6.868;2023-05-10T01:48:57;21.43;;;11.30;;
29954;SDS011;68448;51.188;6.868;2023-05-10T01:51:26;37.63;;;12.53;;
29954;SDS011;68448;51.188;6.868;2023-05-10T01:53:56;24.63;;;10.67;;
29954;SDS011;68448;51.188;6.868;2023-05-10T01:56:25;23.80;;;11.87;;
29954;SDS011;68448;51.188;6.868;2023-05-10T01:58:53;29.13;;;12.70;;
29954;SDS011;68448;51.188;6.868;2023-05-10T02:01:21;27.97;;;14.03;;
29954;SDS011;68448;51.188;6.868;2023-05-10T02:03:50;26.47;;;12.80;;
29954;SDS011;68448;51.188;6.868;2023-05-10T02:06:19;26.27;;;13.67;;
29954;SDS011;68448;51.188;6.868;2023-05-10T02:08:47;34.27;;;13.70;;
29954;SDS011;68448;51.188;6.868;2023-05-10T02:11:16;35.00;;;14.43;;
29954;SDS011;68448;51.188;6.868;2023-05-10T02:13:44;29.87;;;13.67;;
29954;SDS011;68448;51.188;6.868;2023-05-10T02:16:11;33.70;;;14.43;;
29954;SDS011;68448;51.188;6.868;2023-05-10T02:18:40;33.23;;;14.90;;
29954;SDS011;68448;51.188;6.868;2023-05-10T02:21:08;36.43;;;17.33;;
29954;SDS011;68448;51.188;6.868;2023-05-10T02:23:38;35.50;;;15.17;;
29954;SDS011;68448;51.188;6.868;2023-05-10T02:26:06;31.63;;;14.33;;
29954;SDS011;68448;51.188;6.868;2023-05-10T02:28:34;30.90;;;15.00;;
29954;SDS011;68448;51.188;6.868;2023-05-10T02:31:02;34.23;;;15.77;;
29954;SDS011;68448;51.188;6.868;2023-05-10T02:33:30;30.50;;;14.43;;
29954;SDS011;68448;51.188;6.868;2023-05-10T02:35:58;34.47;;;14.50;;
29954;SDS011;68448;51.188;6.868;2023-05-10T02:38:25;35.13;;;15.13;;
29954;SDS011;68448;51.188;6.868;2023-05-10T02:40:54;34.27;;;16.20;;
29954;SDS011;68448;51.188;6.868;2023-05-10T02:43:22;31.97;;;15.13;;
29954;SDS011;68448;51.188;6.868;2023-05-10T02:45:49;35.50;;;15.90;;
29954;SDS011;68448;51.188;6.868;2023-05-10T02:48:16;36.43;;;15.33;;
29954;SDS011;68448;51.188;6.868;2023-05-10T02:50:44;27.70;;;14.53;;
29954;SDS011;68448;51.188;6.868;2023-05-10T02:53:14;32.17;;;15.80;;
29954;SDS011;68448;51.188;6.868;2023-05-10T02:55:42;32.10;;;16.87;;
29954;SDS011;68448;51.188;6.868;2023-05-10T02:58:13;35.63;;;14.27;;
29954;SDS011;68448;51.188;6.868;2023-05-10T03:00:40;27.83;;;15.03;;
29954;SDS011;68448;51.188;6.868;2023-05-10T03:03:07;24.50;;;15.10;;
29954;SDS011;68448;51.188;6.868;2023-05-10T03:05:34;29.50;;;15.20;;
29954;SDS011;68448;51.188;6.868;2023-05-10T03:08:03;27.73;;;14.13;;
29954;SDS011;68448;51.188;6.868;2023-05-10T03:10:30;24.07;;;12.90;;
29954;SDS011;68448;51.188;6.868;2023-05-10T03:13:02;26.10;;;12.70;;
29954;SDS011;68448;51.188;6.868;2023-05-10T03:15:36;29.83;;;12.90;;
29954;SDS011;68448;51.188;6.868;2023-05-10T03:18:05;26.07;;;12.20;;
29954;SDS011;68448;51.188;6.868;2023-05-10T03:20:34;22.53;;;11.60;;
29954;SDS011;68448;51.188;6.868;2023-05-10T03:23:04;21.67;;;11.60;;
29954;SDS011;68448;51.188;6.868;2023-05-10T03:25:31;22.87;;;12.37;;
29954;SDS011;68448;51.188;6.868;2023-05-10T03:28:01;25.33;;;11.30;;
29954;SDS011;68448;51.188;6.868;2023-05-10T03:30:28;22.87;;;11.97;;
29954;SDS011;68448;51.188;6.868;2023-05-10T03:32:57;21.43;;;11.07;;
29954;SDS011;68448;51.188;6.868;2023-05-10T03:35:24;23.50;;;10.63;;
29954;SDS011;68448;51.188;6.868;2023-05-10T03:37:51;20.13;;;10.40;;
29954;SDS011;68448;51.188;6.868;2023-05-10T03:40:19;24.13;;;11.00;;
29954;SDS011;68448;51.188;6.868;2023-05-10T03:42:46;20.80;;;10.67;;
29954;SDS011;68448;51.188;6.868;2023-05-10T03:45:13;22.47;;;11.30;;
29954;SDS011;68448;51.188;6.868;2023-05-10T03:47:40;21.63;;;11.30;;
29954;SDS011;68448;51.188;6.868;2023-05-10T03:50:10;26.20;;;12.40;;
29954;SDS011;68448;51.188;6.868;2023-05-10T03:52:37;20.17;;;11.23;;
29954;SDS011;68448;51.188;6.868;2023-05-10T03:55:04;25.73;;;11.80;;
29954;SDS011;68448;51.188;6.868;2023-05-10T03:57:32;23.97;;;13.00;;
29954;SDS011;68448;51.188;6.868;2023-05-10T03:59:59;24.50;;;13.30;;
29954;SDS011;68448;51.188;6.868;2023-05-10T04:02:26;25.40;;;12.57;;
29954;SDS011;68448;51.188;6.868;2023-05-10T04:04:53;33.73;;;14.30;;
29954;SDS011;68448;51.188;6.868;2023-05-10T04:07:21;27.83;;;13.73;;
29954;SDS011;68448;51.188;6.868;2023-05-10T04:09:49;34.60;;;14.70;;
29954;SDS011;68448;51.188;6.868;2023-05-10T04:12:16;25.53;;;14.50;;
29954;SDS011;68448;51.188;6.868;2023-05-10T04:14:43;28.70;;;14.43;;
29954;SDS011;68448;51.188;6.868;2023-05-10T04:17:10;34.70;;;15.70;;
29954;SDS011;68448;51.188;6.868;2023-05-10T04:19:37;34.97;;;16.10;;
29954;SDS011;68448;51.188;6.868;2023-05-10T04:22:04;35.83;;;16.87;;
29954;SDS011;68448;51.188;6.868;2023-05-10T04:24:33;44.50;;;18.53;;
29954;SDS011;68448;51.188;6.868;2023-05-10T04:27:00;39.67;;;18.27;;
29954;SDS011;68448;51.188;6.868;2023-05-10T04:29:27;43.00;;;19.37;;
29954;SDS011;68448;51.188;6.868;2023-05-10T04:31:54;37.27;;;18.90;;
29954;SDS011;68448;51.188;6.868;2023-05-10T04:34:21;37.37;;;18.00;;
29954;SDS011;68448;51.188;6.868;2023-05-10T04:36:48;40.50;;;18.90;;
29954;SDS011;68448;51.188;6.868;2023-05-10T04:39:15;43.00;;;20.00;;
29954;SDS011;68448;51.188;6.868;2023-05-10T04:41:44;47.13;;;19.60;;
29954;SDS011;68448;51.188;6.868;2023-05-10T04:44:11;44.90;;;19.90;;
29954;SDS011;68448;51.188;6.868;2023-05-10T04:46:38;43.60;;;22.30;;
29954;SDS011;68448;51.188;6.868;2023-05-10T04:49:05;54.43;;;22.37;;
29954;SDS011;68448;51.188;6.868;2023-05-10T04:51:32;42.70;;;20.03;;
29954;SDS011;68448;51.188;6.868;2023-05-10T04:53:59;39.80;;;21.03;;
29954;SDS011;68448;51.188;6.868;2023-05-10T04:56:32;38.97;;;19.77;;
29954;SDS011;68448;51.188;6.868;2023-05-10T04:59:00;41.77;;;21.63;;
29954;SDS011;68448;51.188;6.868;2023-05-10T05:01:27;42.87;;;21.40;;
29954;SDS011;68448;51.188;6.868;2023-05-10T05:03:54;44.93;;;21.87;;
29954;SDS011;68448;51.188;6.868;2023-05-10T05:06:22;48.20;;;21.77;;
29954;SDS011;68448;51.188;6.868;2023-05-10T05:08:49;43.17;;;19.90;;
29954;SDS011;68448;51.188;6.868;2023-05-10T05:11:16;40.27;;;22.23;;
29954;SDS011;68448;51.188;6.868;2023-05-10T05:13:43;42.47;;;21.23;;
29954;SDS011;68448;51.188;6.868;2023-05-10T05:16:11;51.30;;;21.93;;
29954;SDS011;68448;51.188;6.868;2023-05-10T05:18:39;46.30;;;23.67;;
29954;SDS011;68448;51.188;6.868;2023-05-10T05:21:13;46.17;;;23.20;;
29954;SDS011;68448;51.188;6.868;2023-05-10T05:23:40;44.37;;;19.63;;
29954;SDS011;68448;51.188;6.868;2023-05-10T05:26:07;48.53;;;22.30;;
29954;SDS011;68448;51.188;6.868;2023-05-10T05:28:34;39.10;;;23.60;;
29954;SDS011;68448;51.188;6.868;2023-05-10T05:31:01;39.10;;;21.00;;
29954;SDS011;68448;51.188;6.868;2023-05-10T05:33:30;45.10;;;23.00;;
29954;SDS011;68448;51.188;6.868;2023-05-10T05:35:57;34.37;;;19.53;;
29954;SDS011;68448;51.188;6.868;2023-05-10T05:38:24;35.47;;;18.00;;
29954;SDS011;68448;51.188;6.868;2023-05-10T05:40:51;31.23;;;17.80;;
29954;SDS011;68448;51.188;6.868;2023-05-10T05:43:18;33.67;;;19.43;;
29954;SDS011;68448;51.188;6.868;2023-05-10T05:45:45;29.53;;;17.37;;
29954;SDS011;68448;51.188;6.868;2023-05-10T05:48:12;28.67;;;15.93;;
29954;SDS011;68448;51.188;6.868;2023-05-10T05:50:40;27.90;;;16.97;;
29954;SDS011;68448;51.188;6.868;2023-05-10T05:53:08;23.80;;;14.63;;
29954;SDS011;68448;51.188;6.868;2023-05-10T05:55:35;29.40;;;15.53;;
29954;SDS011;68448;51.188;6.868;2023-05-10T05:58:02;31.20;;;17.13;;
29954;SDS011;68448;51.188;6.868;2023-05-10T06:00:29;26.53;;;15.43;;
29954;SDS011;68448;51.188;6.868;2023-05-10T06:02:56;26.00;;;13.10;;
29954;SDS011;68448;51.188;6.868;2023-05-10T06:05:24;27.10;;;15.90;;
29954;SDS011;68448;51.188;6.868;2023-05-10T06:07:52;32.63;;;16.73;;
29954;SDS011;68448;51.188;6.868;2023-05-10T06:10:19;28.90;;;15.70;;
29954;SDS011;68448;51.188;6.868;2023-05-10T06:12:46;31.80;;;16.17;;
29954;SDS011;68448;51.188;6.868;2023-05-10T06:15:13;25.27;;;16.80;;
29954;SDS011;68448;51.188;6.868;2023-05-10T06:17:41;29.10;;;17.90;;
29954;SDS011;68448;51.188;6.868;2023-05-10T06:20:08;27.40;;;17.17;;
29954;SDS011;68448;51.188;6.868;2023-05-10T06:22:35;32.87;;;16.33;;
29954;SDS011;68448;51.188;6.868;2023-05-10T06:25:04;34.03;;;15.90;;
29954;SDS011;68448;51.188;6.868;2023-05-10T06:27:31;30.03;;;16.90;;
29954;SDS011;68448;51.188;6.868;2023-05-10T06:29:59;25.63;;;14.50;;
29954;SDS011;68448;51.188;6.868;2023-05-10T06:32:38;26.43;;;14.07;;
29954;SDS011;68448;51.188;6.868;2023-05-10T06:35:06;26.50;;;15.93;;
29954;SDS011;68448;51.188;6.868;2023-05-10T06:37:33;26.30;;;16.03;;
29954;SDS011;68448;51.188;6.868;2023-05-10T06:40:00;31.80;;;16.43;;
29954;SDS011;68448;51.188;6.868;2023-05-10T06:42:29;26.67;;;16.47;;
29954;SDS011;68448;51.188;6.868;2023-05-10T06:44:56;29.03;;;16.37;;
29954;SDS011;68448;51.188;6.868;2023-05-10T06:47:23;29.80;;;16.97;;
29954;SDS011;68448;51.188;6.868;2023-05-10T06:49:50;27.93;;;16.80;;
29954;SDS011;68448;51.188;6.868;2023-05-10T06:52:17;31.93;;;15.50;;
29954;SDS011;68448;51.188;6.868;2023-05-10T06:54:44;32.40;;;16.80;;
29954;SDS011;68448;51.188;6.868;2023-05-10T06:57:11;37.00;;;17.73;;
29954;SDS011;68448;51.188;6.868;2023-05-10T06:59:57;33.87;;;16.33;;
29954;SDS011;68448;51.188;6.868;2023-05-10T07:02:24;38.70;;;16.63;;
29954;SDS011;68448;51.188;6.868;2023-05-10T07:04:51;37.77;;;17.80;;
29954;SDS011;68448;51.188;6.868;2023-05-10T07:07:19;37.97;;;16.70;;
29954;SDS011;68448;51.188;6.868;2023-05-10T07:09:46;46.07;;;16.97;;
29954;SDS011;68448;51.188;6.868;2023-05-10T07:12:13;38.47;;;18.30;;
29954;SDS011;68448;51.188;6.868;2023-05-10T07:14:41;45.57;;;19.87;;
29954;SDS011;68448;51.188;6.868;2023-05-10T07:17:10;33.70;;;15.90;;
29954;SDS011;68448;51.188;6.868;2023-05-10T07:19:37;37.53;;;17.30;;
29954;SDS011;68448;51.188;6.868;2023-05-10T07:22:04;36.13;;;16.60;;
29954;SDS011;68448;51.188;6.868;2023-05-10T07:24:31;31.60;;;16.27;;
29954;SDS011;68448;51.188;6.868;2023-05-10T07:26:58;39.77;;;16.93;;
29954;SDS011;68448;51.188;6.868;2023-05-10T07:29:25;34.13;;;15.30;;
29954;SDS011;68448;51.188;6.868;2023-05-10T07:31:52;32.07;;;15.97;;
29954;SDS011;68448;51.188;6.868;2023-05-10T07:34:25;26.37;;;13.20;;
29954;SDS011;68448;51.188;6.868;2023-05-10T07:36:52;31.57;;;15.03;;
29954;SDS011;68448;51.188;6.868;2023-05-10T07:39:19;25.33;;;13.53;;
29954;SDS011;68448;51.188;6.868;2023-05-10T07:41:53;25.73;;;14.10;;
29954;SDS011;68448;51.188;6.868;2023-05-10T07:44:20;30.67;;;14.77;;
29954;SDS011;68448;51.188;6.868;2023-05-10T07:46:47;24.90;;;13.13;;
29954;SDS011;68448;51.188;6.868;2023-05-10T07:49:14;22.27;;;11.47;;
29954;SDS011;68448;51.188;6.868;2023-05-10T07:51:43;21.83;;;12.67;;
29954;SDS011;68448;51.188;6.868;2023-05-10T07:54:10;23.57;;;14.40;;
29954;SDS011;68448;51.188;6.868;2023-05-10T07:56:37;25.40;;;13.13;;
29954;SDS011;68448;51.188;6.868;2023-05-10T07:59:05;23.03;;;12.70;;
29954;SDS011;68448;51.188;6.868;2023-05-10T08:01:33;20.90;;;12.93;;
29954;SDS011;68448;51.188;6.868;2023-05-10T08:04:00;24.33;;;11.70;;
29954;SDS011;68448;51.188;6.868;2023-05-10T08:06:28;26.53;;;14.93;;
29954;SDS011;68448;51.188;6.868;2023-05-10T08:08:57;29.87;;;16.37;;
29954;SDS011;68448;51.188;6.868;2023-05-10T08:11:24;34.23;;;17.00;;
29954;SDS011;68448;51.188;6.868;2023-05-10T08:13:51;38.20;;;19.70;;
29954;SDS011;68448;51.188;6.868;2023-05-10T08:16:18;40.93;;;20.80;;
29954;SDS011;68448;51.188;6.868;2023-05-10T08:18:46;41.83;;;20.07;;
29954;SDS011;68448;51.188;6.868;2023-05-10T08:21:13;40.60;;;20.30;;
29954;SDS011;68448;51.188;6.868;2023-05-10T08:23:41;35.10;;;19.40;;
29954;SDS011;68448;51.188;6.868;2023-05-10T08:26:09;38.50;;;21.57;;
29954;SDS011;68448;51.188;6.868;2023-05-10T08:28:36;42.47;;;22.07;;
29954;SDS011;68448;51.188;6.868;2023-05-10T08:31:03;53.77;;;24.80;;
29954;SDS011;68448;51.188;6.868;2023-05-10T08:33:31;49.43;;;25.40;;
29954;SDS011;68448;51.188;6.868;2023-05-10T08:35:58;51.53;;;26.07;;
29954;SDS011;68448;51.188;6.868;2023-05-10T08:38:25;48.73;;;23.77;;
29954;SDS011;68448;51.188;6.868;2023-05-10T08:40:52;47.13;;;22.60;;
29954;SDS011;68448;51.188;6.868;2023-05-10T08:43:22;41.80;;;21.90;;
29954;SDS011;68448;51.188;6.868;2023-05-10T08:45:51;44.70;;;23.20;;
29954;SDS011;68448;51.188;6.868;2023-05-10T08:48:20;44.30;;;21.60;;
29954;SDS011;68448;51.188;6.868;2023-05-10T08:50:49;45.60;;;22.93;;
29954;SDS011;68448;51.188;6.868;2023-05-10T08:53:19;48.47;;;24.13;;
29954;SDS011;68448;51.188;6.868;2023-05-10T08:55:46;40.10;;;23.27;;
29954;SDS011;68448;51.188;6.868;2023-05-10T08:58:13;50.70;;;25.00;;
29954;SDS011;68448;51.188;6.868;2023-05-10T09:00:42;47.63;;;24.30;;
29954;SDS011;68448;51.188;6.868;2023-05-10T09:03:10;46.97;;;22.40;;
29954;SDS011;68448;51.188;6.868;2023-05-10T09:05:37;43.60;;;21.87;;
29954;SDS011;68448;51.188;6.868;2023-05-10T09:08:04;40.10;;;22.70;;
29954;SDS011;68448;51.188;6.868;2023-05-10T09:10:32;43.67;;;21.47;;
29954;SDS011;68448;51.188;6.868;2023-05-10T09:12:59;36.40;;;20.67;;
29954;SDS011;68448;51.188;6.868;2023-05-10T09:15:27;39.03;;;20.60;;
29954;SDS011;68448;51.188;6.868;2023-05-10T09:17:55;40.97;;;23.10;;
29954;SDS011;68448;51.188;6.868;2023-05-10T09:20:22;42.50;;;21.83;;
29954;SDS011;68448;51.188;6.868;2023-05-10T09:22:49;40.60;;;21.37;;
29954;SDS011;68448;51.188;6.868;2023-05-10T09:25:17;36.60;;;22.00;;
29954;SDS011;68448;51.188;6.868;2023-05-10T09:27:45;39.27;;;20.57;;
29954;SDS011;68448;51.188;6.868;2023-05-10T09:30:14;42.93;;;19.50;;
29954;SDS011;68448;51.188;6.868;2023-05-10T09:32:42;35.27;;;19.00;;
29954;SDS011;68448;51.188;6.868;2023-05-10T09:35:12;33.43;;;19.23;;
29954;SDS011;68448;51.188;6.868;2023-05-10T09:37:39;31.20;;;17.43;;
29954;SDS011;68448;51.188;6.868;2023-05-10T09:40:07;30.30;;;18.33;;
29954;SDS011;68448;51.188;6.868;2023-05-10T09:42:34;28.53;;;17.17;;
29954;SDS011;68448;51.188;6.868;2023-05-10T09:45:02;24.73;;;16.03;;
29954;SDS011;68448;51.188;6.868;2023-05-10T09:47:31;24.73;;;15.10;;
29954;SDS011;68448;51.188;6.868;2023-05-10T09:49:58;21.90;;;14.90;;
29954;SDS011;68448;51.188;6.868;2023-05-10T09:52:26;23.50;;;15.87;;
29954;SDS011;68448;51.188;6.868;2023-05-10T09:54:54;24.53;;;14.30;;
29954;SDS011;68448;51.188;6.868;2023-05-10T09:57:21;24.07;;;14.63;;
29954;SDS011;68448;51.188;6.868;2023-05-10T09:59:48;31.43;;;12.77;;
29954;SDS011;68448;51.188;6.868;2023-05-10T10:02:16;25.80;;;15.97;;
29954;SDS011;68448;51.188;6.868;2023-05-10T10:04:43;24.30;;;15.80;;
29954;SDS011;68448;51.188;6.868;2023-05-10T10:07:10;21.50;;;12.80;;
29954;SDS011;68448;51.188;6.868;2023-05-10T10:09:38;22.50;;;14.40;;
29954;SDS011;68448;51.188;6.868;2023-05-10T10:12:06;22.97;;;14.50;;
29954;SDS011;68448;51.188;6.868;2023-05-10T10:14:33;24.23;;;14.03;;
29954;SDS011;68448;51.188;6.868;2023-05-10T10:17:00;25.70;;;15.70;;
29954;SDS011;68448;51.188;6.868;2023-05-10T10:19:31;21.50;;;14.90;;
29954;SDS011;68448;51.188;6.868;2023-05-10T10:21:59;29.40;;;14.77;;
29954;SDS011;68448;51.188;6.868;2023-05-10T10:24:26;21.37;;;14.80;;
29954;SDS011;68448;51.188;6.868;2023-05-10T10:26:56;20.93;;;12.70;;
29954;SDS011;68448;51.188;6.868;2023-05-10T10:29:25;24.80;;;14.00;;
29954;SDS011;68448;51.188;6.868;2023-05-10T10:31:59;27.33;;;13.60;;
29954;SDS011;68448;51.188;6.868;2023-05-10T10:34:30;23.50;;;13.70;;
29954;SDS011;68448;51.188;6.868;2023-05-10T10:36:58;15.93;;;12.30;;
29954;SDS011;68448;51.188;6.868;2023-05-10T10:39:30;22.10;;;12.90;;
29954;SDS011;68448;51.188;6.868;2023-05-10T10:41:59;22.67;;;13.60;;
29954;SDS011;68448;51.188;6.868;2023-05-10T10:44:33;22.37;;;14.23;;
29954;SDS011;68448;51.188;6.868;2023-05-10T10:47:01;24.30;;;14.57;;
29954;SDS011;68448;51.188;6.868;2023-05-10T10:49:30;20.80;;;13.07;;
29954;SDS011;68448;51.188;6.868;2023-05-10T10:52:14;20.63;;;14.37;;
29954;SDS011;68448;51.188;6.868;2023-05-10T10:54:41;17.90;;;13.23;;
29954;SDS011;68448;51.188;6.868;2023-05-10T10:57:12;22.50;;;13.40;;
29954;SDS011;68448;51.188;6.868;2023-05-10T10:59:43;25.90;;;14.60;;
29954;SDS011;68448;51.188;6.868;2023-05-10T11:02:10;19.43;;;13.47;;
29954;SDS011;68448;51.188;6.868;2023-05-10T11:04:41;20.50;;;13.67;;
29954;SDS011;68448;51.188;6.868;2023-05-10T11:07:17;20.33;;;12.43;;
29954;SDS011;68448;51.188;6.868;2023-05-10T11:09:45;19.13;;;12.60;;
29954;SDS011;68448;51.188;6.868;2023-05-10T11:12:14;19.30;;;11.93;;
29954;SDS011;68448;51.188;6.868;2023-05-10T11:14:41;17.73;;;13.43;;
29954;SDS011;68448;51.188;6.868;2023-05-10T11:17:24;19.53;;;12.43;;
29954;SDS011;68448;51.188;6.868;2023-05-10T11:20:07;18.63;;;12.50;;
29954;SDS011;68448;51.188;6.868;2023-05-10T11:22:48;19.70;;;13.00;;
29954;SDS011;68448;51.188;6.868;2023-05-10T11:25:15;20.23;;;13.10;;
29954;SDS011;68448;51.188;6.868;2023-05-10T11:27:44;20.87;;;13.47;;
29954;SDS011;68448;51.188;6.868;2023-05-10T11:30:12;21.33;;;14.50;;
29954;SDS011;68448;51.188;6.868;2023-05-10T11:32:40;20.07;;;13.57;;
29954;SDS011;68448;51.188;6.868;2023-05-10T11:35:07;52.17;;;13.47;;
29954;SDS011;68448;51.188;6.868;2023-05-10T11:37:34;22.50;;;13.67;;
29954;SDS011;68448;51.188;6.868;2023-05-10T11:40:01;20.93;;;15.03;;
29954;SDS011;68448;51.188;6.868;2023-05-10T11:42:28;21.93;;;13.77;;
29954;SDS011;68448;51.188;6.868;2023-05-10T11:44:57;20.10;;;14.30;;
29954;SDS011;68448;51.188;6.868;2023-05-10T11:47:24;27.33;;;13.50;;
29954;SDS011;68448;51.188;6.868;2023-05-10T11:49:51;21.63;;;13.23;;
29954;SDS011;68448;51.188;6.868;2023-05-10T11:52:18;21.60;;;14.23;;
29954;SDS011;68448;51.188;6.868;2023-05-10T11:54:50;23.03;;;15.03;;
29954;SDS011;68448;51.188;6.868;2023-05-10T11:57:18;19.07;;;13.70;;
29954;SDS011;68448;51.188;6.868;2023-05-10T11:59:45;21.83;;;13.70;;
29954;SDS011;68448;51.188;6.868;2023-05-10T12:02:13;18.50;;;13.37;;
29954;SDS011;68448;51.188;6.868;2023-05-10T12:04:40;26.83;;;14.80;;
29954;SDS011;68448;51.188;6.868;2023-05-10T12:07:08;19.73;;;13.53;;
29954;SDS011;68448;51.188;6.868;2023-05-10T12:09:35;20.30;;;14.40;;
29954;SDS011;68448;51.188;6.868;2023-05-10T12:12:09;22.73;;;14.40;;
29954;SDS011;68448;51.188;6.868;2023-05-10T12:14:37;21.70;;;14.37;;
29954;SDS011;68448;51.188;6.868;2023-05-10T12:17:04;23.17;;;14.00;;
29954;SDS011;68448;51.188;6.868;2023-05-10T12:19:37;22.10;;;14.90;;
29954;SDS011;68448;51.188;6.868;2023-05-10T12:22:04;19.00;;;13.80;;
29954;SDS011;68448;51.188;6.868;2023-05-10T12:24:33;29.27;;;15.30;;
29954;SDS011;68448;51.188;6.868;2023-05-10T12:27:04;23.07;;;15.00;;
29954;SDS011;68448;51.188;6.868;2023-05-10T12:29:49;20.30;;;14.73;;
29954;SDS011;68448;51.188;6.868;2023-05-10T12:32:16;17.50;;;11.90;;
29954;SDS011;68448;51.188;6.868;2023-05-10T12:34:46;19.37;;;13.90;;
29954;SDS011;68448;51.188;6.868;2023-05-10T12:37:13;19.17;;;12.40;;
29954;SDS011;68448;51.188;6.868;2023-05-10T12:39:40;19.57;;;14.03;;
29954;SDS011;68448;51.188;6.868;2023-05-10T12:42:08;21.43;;;15.23;;
29954;SDS011;68448;51.188;6.868;2023-05-10T12:44:35;21.87;;;16.83;;
29954;SDS011;68448;51.188;6.868;2023-05-10T12:47:02;24.93;;;16.13;;
29954;SDS011;68448;51.188;6.868;2023-05-10T12:49:29;29.53;;;16.90;;
29954;SDS011;68448;51.188;6.868;2023-05-10T12:51:57;33.20;;;19.87;;
29954;SDS011;68448;51.188;6.868;2023-05-10T12:54:24;33.93;;;21.07;;
29954;SDS011;68448;51.188;6.868;2023-05-10T12:56:51;33.83;;;23.20;;
29954;SDS011;68448;51.188;6.868;2023-05-10T12:59:18;34.07;;;21.73;;
29954;SDS011;68448;51.188;6.868;2023-05-10T13:01:45;33.67;;;19.57;;
29954;SDS011;68448;51.188;6.868;2023-05-10T13:04:13;28.23;;;17.63;;
29954;SDS011;68448;51.188;6.868;2023-05-10T13:06:40;28.73;;;18.47;;
29954;SDS011;68448;51.188;6.868;2023-05-10T13:09:08;29.00;;;19.70;;
29954;SDS011;68448;51.188;6.868;2023-05-10T13:11:35;31.83;;;19.43;;
29954;SDS011;68448;51.188;6.868;2023-05-10T13:14:02;32.63;;;20.37;;
29954;SDS011;68448;51.188;6.868;2023-05-10T13:16:29;35.57;;;21.30;;
29954;SDS011;68448;51.188;6.868;2023-05-10T13:18:57;39.87;;;24.43;;
29954;SDS011;68448;51.188;6.868;2023-05-10T13:21:24;32.27;;;20.83;;
29954;SDS011;68448;51.188;6.868;2023-05-10T13:23:51;35.30;;;20.70;;
29954;SDS011;68448;51.188;6.868;2023-05-10T13:26:19;35.47;;;20.30;;
29954;SDS011;68448;51.188;6.868;2023-05-10T13:28:47;30.00;;;19.57;;
29954;SDS011;68448;51.188;6.868;2023-05-10T13:31:14;35.43;;;21.30;;
29954;SDS011;68448;51.188;6.868;2023-05-10T13:33:41;39.73;;;21.87;;
29954;SDS011;68448;51.188;6.868;2023-05-10T13:36:08;31.83;;;20.27;;
29954;SDS011;68448;51.188;6.868;2023-05-10T13:38:35;36.37;;;22.57;;
29954;SDS011;68448;51.188;6.868;2023-05-10T13:41:02;33.47;;;21.50;;
29954;SDS011;68448;51.188;6.868;2023-05-10T13:43:31;41.07;;;22.27;;
29954;SDS011;68448;51.188;6.868;2023-05-10T13:45:58;32.00;;;21.33;;
29954;SDS011;68448;51.188;6.868;2023-05-10T13:48:26;36.63;;;23.13;;
29954;SDS011;68448;51.188;6.868;2023-05-10T13:50:53;34.40;;;23.10;;
29954;SDS011;68448;51.188;6.868;2023-05-10T13:53:20;28.30;;;20.27;;
29954;SDS011;68448;51.188;6.868;2023-05-10T13:55:48;30.40;;;20.60;;
29954;SDS011;68448;51.188;6.868;2023-05-10T13:58:16;28.50;;;16.87;;
29954;SDS011;68448;51.188;6.868;2023-05-10T14:00:44;24.23;;;16.23;;
29954;SDS011;68448;51.188;6.868;2023-05-10T14:03:11;24.60;;;16.03;;
29954;SDS011;68448;51.188;6.868;2023-05-10T14:05:39;23.10;;;15.20;;
29954;SDS011;68448;51.188;6.868;2023-05-10T14:08:06;19.80;;;12.53;;
29954;SDS011;68448;51.188;6.868;2023-05-10T14:10:33;17.60;;;13.00;;
29954;SDS011;68448;51.188;6.868;2023-05-10T14:13:00;13.67;;;9.87;;
29954;SDS011;68448;51.188;6.868;2023-05-10T14:15:27;16.63;;;9.80;;
29954;SDS011;68448;51.188;6.868;2023-05-10T14:17:55;14.10;;;8.73;;
29954;SDS011;68448;51.188;6.868;2023-05-10T14:20:22;14.80;;;10.43;;
29954;SDS011;68448;51.188;6.868;2023-05-10T14:22:49;16.07;;;9.77;;
29954;SDS011;68448;51.188;6.868;2023-05-10T14:25:16;14.60;;;10.27;;
29954;SDS011;68448;51.188;6.868;2023-05-10T14:27:44;14.23;;;8.67;;
29954;SDS011;68448;51.188;6.868;2023-05-10T14:30:12;17.17;;;10.83;;
29954;SDS011;68448;51.188;6.868;2023-05-10T14:32:39;17.63;;;11.07;;
29954;SDS011;68448;51.188;6.868;2023-05-10T14:35:08;18.27;;;10.93;;